createdAt,value
2023-02-21T00:02:28.644Z,52.70
2023-02-21T00:05:19.012Z,52.70
2023-02-21T00:08:10.904Z,53.10
2023-02-21T00:11:01.512Z,53.10
2023-02-21T00:13:54.687Z,53.70
2023-02-21T00:16:45.402Z,53.30
2023-02-21T00:19:35.996Z,53.20
2023-02-21T00:22:26.567Z,53.20
2023-02-21T00:25:19.698Z,53.00
2023-02-21T00:28:10.345Z,52.90
2023-02-21T00:31:01.033Z,52.80
2023-02-21T00:33:53.971Z,52.70
2023-02-21T00:36:44.658Z,52.60
2023-02-21T00:39:35.273Z,52.50
2023-02-21T00:42:27.901Z,52.40
2023-02-21T00:45:18.525Z,52.30
2023-02-21T00:48:10.088Z,52.20
2023-02-21T00:51:00.851Z,52.20
2023-02-21T00:53:51.438Z,53.00
2023-02-21T00:56:41.958Z,53.40
2023-02-21T00:59:33.721Z,53.70
2023-02-21T01:02:25.415Z,54.00
2023-02-21T01:05:15.979Z,54.00
2023-02-21T01:08:06.419Z,54.10
2023-02-21T01:10:57.208Z,54.00
2023-02-21T01:13:48.786Z,53.90
2023-02-21T01:16:42.747Z,53.90
2023-02-21T01:19:33.261Z,54.00
2023-02-21T01:22:24.678Z,54.00
2023-02-21T01:25:17.964Z,53.90
2023-02-21T01:28:08.711Z,54.00
2023-02-21T01:30:59.948Z,53.90
2023-02-21T01:33:54.563Z,53.90
2023-02-21T01:36:45.610Z,54.00
2023-02-21T01:39:36.070Z,54.00
2023-02-21T01:42:28.174Z,54.00
2023-02-21T01:45:52.204Z,54.00
2023-02-21T01:48:44.739Z,54.00
2023-02-21T01:51:37.446Z,54.20
2023-02-21T01:54:29.020Z,54.20
2023-02-21T01:57:21.177Z,54.20
2023-02-21T02:00:12.698Z,54.20
2023-02-21T02:03:09.576Z,54.30
2023-02-21T02:06:01.712Z,54.30
2023-02-21T02:08:54.158Z,54.30
2023-02-21T02:11:58.224Z,54.20
2023-02-21T02:14:41.496Z,54.30
2023-02-21T02:17:19.178Z,54.30
2023-02-21T02:20:04.518Z,54.30
2023-02-21T02:22:49.002Z,54.30
2023-02-21T02:25:34.296Z,54.40
2023-02-21T02:28:23.010Z,54.40
2023-02-21T02:31:12.020Z,54.40
2023-02-21T02:33:57.023Z,54.40
2023-02-21T02:36:34.206Z,54.50
2023-02-21T02:39:13.988Z,54.50
2023-02-21T02:41:51.115Z,54.50
2023-02-21T02:44:28.373Z,54.60
2023-02-21T02:47:02.884Z,54.50
2023-02-21T02:49:37.836Z,54.50
2023-02-21T02:52:12.667Z,54.60
2023-02-21T02:54:45.873Z,54.60
2023-02-21T02:57:19.011Z,54.60
2023-02-21T02:59:52.273Z,54.60
2023-02-21T03:02:38.123Z,54.60
2023-02-21T03:05:18.281Z,54.60
2023-02-21T03:07:58.250Z,54.60
2023-02-21T03:10:37.288Z,54.60
2023-02-21T03:13:15.151Z,54.60
2023-02-21T03:15:50.813Z,54.60
2023-02-21T03:18:27.462Z,54.60
2023-02-21T03:21:01.875Z,54.60
2023-02-21T03:23:37.046Z,54.60
2023-02-21T03:26:11.584Z,54.70
2023-02-21T03:28:48.797Z,54.70
2023-02-21T03:31:25.705Z,54.70
2023-02-21T03:33:58.953Z,54.70
2023-02-21T03:36:34.756Z,54.70
2023-02-21T03:39:09.362Z,54.70
2023-02-21T03:41:43.129Z,54.70
2023-02-21T03:44:16.329Z,54.80
2023-02-21T03:46:49.549Z,54.70
2023-02-21T03:49:22.774Z,54.70
2023-02-21T03:51:55.962Z,54.80
2023-02-21T03:54:30.912Z,54.80
2023-02-21T03:57:06.050Z,54.80
2023-02-21T03:59:46.101Z,54.70
2023-02-21T04:02:20.153Z,54.70
2023-02-21T04:04:53.504Z,54.80
2023-02-21T04:07:29.254Z,54.90
2023-02-21T04:10:03.950Z,54.90
2023-02-21T04:12:45.719Z,54.90
2023-02-21T04:15:19.120Z,54.90
2023-02-21T04:17:52.781Z,54.90
2023-02-21T04:20:26.824Z,54.90
2023-02-21T04:23:03.964Z,54.90
2023-02-21T04:25:40.631Z,54.80
2023-02-21T04:28:20.303Z,54.80
2023-02-21T04:30:54.447Z,54.70
2023-02-21T04:33:27.715Z,54.60
2023-02-21T04:36:00.931Z,54.60
2023-02-21T04:38:50.415Z,54.60
2023-02-21T04:41:24.920Z,54.50
2023-02-21T04:43:58.038Z,54.50
2023-02-21T04:46:31.190Z,54.50
2023-02-21T04:49:04.289Z,55.10
2023-02-21T04:51:37.386Z,54.50
2023-02-21T04:54:11.884Z,54.50
2023-02-21T04:56:47.539Z,54.50
2023-02-21T04:59:20.611Z,54.50
2023-02-21T05:01:53.653Z,54.50
2023-02-21T05:04:29.224Z,54.50
2023-02-21T05:07:02.305Z,54.40
2023-02-21T05:09:35.397Z,54.50
2023-02-21T05:12:12.058Z,54.50
2023-02-21T05:14:45.167Z,54.40
2023-02-21T05:17:18.511Z,54.50
2023-02-21T05:19:51.873Z,54.50
2023-02-21T05:22:25.012Z,54.50
2023-02-21T05:24:58.088Z,54.40
2023-02-21T05:27:32.556Z,54.40
2023-02-21T05:30:06.265Z,54.40
2023-02-21T05:32:39.366Z,54.30
2023-02-21T05:35:12.815Z,54.30
2023-02-21T05:37:45.890Z,54.30
2023-02-21T05:40:19.214Z,54.20
2023-02-21T05:42:53.654Z,54.20
2023-02-21T05:45:26.809Z,54.20
2023-02-21T05:48:02.454Z,54.20
2023-02-21T05:50:35.572Z,54.30
2023-02-21T05:53:10.375Z,54.20
2023-02-21T05:55:43.636Z,54.20
2023-02-21T05:58:18.090Z,54.10
2023-02-21T06:00:52.357Z,54.00
2023-02-21T06:03:25.514Z,54.20
2023-02-21T06:05:58.638Z,54.00
2023-02-21T06:08:31.708Z,54.10
2023-02-21T06:11:04.831Z,54.10
2023-02-21T06:13:39.343Z,54.20
2023-02-21T06:16:12.506Z,54.30
2023-02-21T06:18:45.603Z,54.30
2023-02-21T06:21:18.729Z,54.30
2023-02-21T06:23:51.953Z,54.30
2023-02-21T06:26:25.048Z,54.10
2023-02-21T06:28:59.535Z,54.20
2023-02-21T06:31:32.803Z,54.20
2023-02-21T06:34:05.954Z,54.50
2023-02-21T06:36:40.648Z,54.70
2023-02-21T06:39:13.857Z,54.90
2023-02-21T06:41:46.916Z,55.10
2023-02-21T06:44:21.598Z,55.30
2023-02-21T06:46:54.970Z,55.50
2023-02-21T06:49:28.178Z,55.50
2023-02-21T06:52:01.634Z,55.20
2023-02-21T06:54:34.972Z,55.00
2023-02-21T06:57:08.087Z,54.80
2023-02-21T06:59:42.547Z,54.60
2023-02-21T07:02:19.919Z,49.40
2023-02-21T07:04:53.018Z,41.60
2023-02-21T07:07:26.182Z,39.30
2023-02-21T07:09:59.913Z,43.60
2023-02-21T07:12:33.017Z,44.00
2023-02-21T07:15:08.173Z,44.00
2023-02-21T07:17:41.862Z,42.90
2023-02-21T07:20:15.017Z,43.30
2023-02-21T07:22:48.228Z,44.10
2023-02-21T07:25:22.568Z,44.60
2023-02-21T07:27:55.679Z,43.80
2023-02-21T07:30:30.154Z,43.60
2023-02-21T07:33:03.266Z,43.80
2023-02-21T07:35:36.380Z,43.70
2023-02-21T07:38:09.470Z,44.30
2023-02-21T07:40:42.603Z,44.40
2023-02-21T07:43:15.735Z,44.60
2023-02-21T07:45:51.269Z,44.90
2023-02-21T07:48:24.406Z,45.20
2023-02-21T07:50:57.851Z,45.50
2023-02-21T07:53:30.912Z,45.60
2023-02-21T07:56:04.190Z,45.60
2023-02-21T07:58:38.108Z,45.90
2023-02-21T08:01:12.725Z,46.00
2023-02-21T08:03:45.956Z,46.30
2023-02-21T08:06:19.311Z,46.50
2023-02-21T08:08:52.438Z,46.60
2023-02-21T08:11:25.500Z,46.50
2023-02-21T08:13:58.573Z,46.50
2023-02-21T08:16:34.806Z,46.50
2023-02-21T08:19:09.365Z,46.70
2023-02-21T08:21:45.852Z,46.80
2023-02-21T08:24:19.503Z,46.80
2023-02-21T08:26:52.588Z,47.10
2023-02-21T08:29:25.674Z,47.20
2023-02-21T08:32:00.314Z,47.20
2023-02-21T08:34:33.422Z,47.40
2023-02-21T08:37:20.051Z,47.50
2023-02-21T08:39:54.103Z,47.70
2023-02-21T08:42:27.216Z,47.80
2023-02-21T08:45:00.331Z,47.70
2023-02-21T08:47:36.838Z,47.50
2023-02-21T08:50:10.229Z,47.50
2023-02-21T08:52:43.338Z,47.50
2023-02-21T08:55:16.562Z,47.50
2023-02-21T08:57:50.752Z,47.40
2023-02-21T09:00:24.851Z,47.40
2023-02-21T09:02:59.741Z,47.40
2023-02-21T09:05:32.991Z,47.40
2023-02-21T09:08:09.250Z,47.30
2023-02-21T09:10:47.548Z,47.20
2023-02-21T09:13:20.944Z,47.10
2023-02-21T09:15:54.055Z,47.10
2023-02-21T09:18:29.101Z,47.40
2023-02-21T09:21:02.216Z,47.50
2023-02-21T09:23:35.533Z,47.50
2023-02-21T09:26:08.676Z,47.50
2023-02-21T09:28:43.857Z,47.60
2023-02-21T09:31:17.584Z,47.70
2023-02-21T09:33:52.316Z,47.90
2023-02-21T09:36:27.119Z,48.10
2023-02-21T09:39:00.419Z,48.30
2023-02-21T09:41:33.789Z,48.20
2023-02-21T09:44:08.350Z,48.80
2023-02-21T09:46:43.567Z,49.10
2023-02-21T09:49:20.482Z,49.20
2023-02-21T09:51:54.436Z,49.10
2023-02-21T09:54:32.040Z,49.40
2023-02-21T09:57:06.597Z,49.00
2023-02-21T09:59:39.920Z,48.90
2023-02-21T10:02:19.756Z,49.00
2023-02-21T10:05:00.500Z,49.20
2023-02-21T10:07:37.039Z,49.40
2023-02-21T10:10:14.864Z,49.10
2023-02-21T10:12:54.015Z,49.00
2023-02-21T10:15:35.437Z,48.90
2023-02-21T10:18:14.261Z,48.80
2023-02-21T10:20:52.374Z,48.60
2023-02-21T10:23:28.416Z,48.50
2023-02-21T10:26:06.020Z,43.80
2023-02-21T10:28:39.477Z,39.70
2023-02-21T10:31:17.516Z,37.20
2023-02-21T10:33:50.966Z,35.40
2023-02-21T10:36:25.434Z,34.00
2023-02-21T10:39:00.709Z,36.30
2023-02-21T10:41:36.452Z,37.10
2023-02-21T10:44:11.632Z,37.70
2023-02-21T10:46:46.252Z,38.70
2023-02-21T10:49:24.609Z,36.90
2023-02-21T10:52:06.222Z,37.40
2023-02-21T10:54:39.450Z,38.20
2023-02-21T10:57:14.979Z,37.80
2023-02-21T10:59:50.729Z,38.70
2023-02-21T11:02:29.356Z,37.80
2023-02-21T11:05:09.892Z,37.60
2023-02-21T11:07:56.491Z,38.40
2023-02-21T11:10:31.514Z,37.60
2023-02-21T11:13:06.179Z,36.70
2023-02-21T11:15:39.296Z,38.40
2023-02-21T11:18:16.936Z,37.10
2023-02-21T11:20:50.056Z,36.70
2023-02-21T11:23:28.595Z,38.60
2023-02-21T11:26:07.250Z,38.10
2023-02-21T11:28:43.532Z,38.70
2023-02-21T11:31:18.448Z,39.60
2023-02-21T11:33:53.238Z,38.50
2023-02-21T11:36:28.763Z,39.00
2023-02-21T11:39:07.846Z,39.30
2023-02-21T11:41:46.810Z,39.30
2023-02-21T11:44:24.443Z,39.80
2023-02-21T11:47:02.351Z,40.10
2023-02-21T11:49:39.955Z,40.10
2023-02-21T11:52:14.356Z,40.60
2023-02-21T11:54:48.849Z,40.80
2023-02-21T11:57:25.337Z,40.90
2023-02-21T12:00:02.311Z,41.00
2023-02-21T12:02:56.370Z,41.50
2023-02-21T12:05:33.966Z,41.20
2023-02-21T12:08:17.378Z,41.30
2023-02-21T12:10:55.519Z,41.40
2023-02-21T12:13:33.748Z,41.60
2023-02-21T12:16:12.336Z,41.70
2023-02-21T12:18:52.728Z,41.70
2023-02-21T12:21:32.976Z,41.90
2023-02-21T12:24:16.597Z,41.90
2023-02-21T12:26:55.221Z,42.00
2023-02-21T12:29:36.200Z,42.00
2023-02-21T12:32:23.339Z,42.10
2023-02-21T12:35:03.378Z,42.10
2023-02-21T12:37:41.241Z,42.20
2023-02-21T12:40:20.177Z,42.30
2023-02-21T12:43:04.761Z,42.30
2023-02-21T12:45:50.090Z,42.40
2023-02-21T12:48:29.088Z,42.80
2023-02-21T12:51:06.487Z,42.90
2023-02-21T12:53:43.054Z,43.00
2023-02-21T12:56:18.235Z,42.60
2023-02-21T12:58:55.317Z,42.60
2023-02-21T13:01:31.266Z,42.50
2023-02-21T13:04:10.281Z,42.70
2023-02-21T13:06:47.003Z,42.80
2023-02-21T13:09:26.810Z,43.00
2023-02-21T13:12:03.132Z,43.20
2023-02-21T13:14:42.265Z,43.20
2023-02-21T13:17:16.987Z,43.10
2023-02-21T13:19:52.169Z,43.20
2023-02-21T13:22:43.290Z,43.20
2023-02-21T13:25:22.463Z,43.30
2023-02-21T13:28:01.137Z,43.40
2023-02-21T13:30:43.384Z,43.50
2023-02-21T13:33:27.480Z,43.70
2023-02-21T13:36:01.763Z,43.90
2023-02-21T13:38:35.275Z,43.90
2023-02-21T13:41:11.277Z,43.90
2023-02-21T13:43:48.289Z,44.10
2023-02-21T13:46:47.180Z,44.30
2023-02-21T13:49:41.298Z,44.70
2023-02-21T13:52:32.406Z,44.50
2023-02-21T13:55:27.328Z,44.30
2023-02-21T13:58:19.592Z,44.80
2023-02-21T14:00:54.712Z,44.80
2023-02-21T14:03:33.346Z,44.70
2023-02-21T14:06:30.423Z,44.90
2023-02-21T14:09:06.101Z,44.70
2023-02-21T14:11:41.073Z,44.80
2023-02-21T14:14:22.728Z,44.80
2023-02-21T14:17:02.106Z,44.90
2023-02-21T14:19:38.606Z,45.10
2023-02-21T14:22:13.741Z,44.40
2023-02-21T14:24:49.516Z,44.40
2023-02-21T14:27:34.013Z,44.50
2023-02-21T14:30:16.359Z,44.80
2023-02-21T14:32:51.378Z,44.70
2023-02-21T14:35:30.770Z,44.60
2023-02-21T14:38:05.132Z,44.60
2023-02-21T14:40:45.497Z,44.50
2023-02-21T14:43:25.210Z,44.40
2023-02-21T14:46:08.890Z,44.10
2023-02-21T14:49:06.157Z,43.90
2023-02-21T14:52:00.433Z,43.90
2023-02-21T14:54:54.708Z,43.90
2023-02-21T14:57:55.229Z,43.80
2023-02-21T15:00:34.373Z,43.60
2023-02-21T15:03:11.882Z,43.60
2023-02-21T15:05:48.710Z,43.70
2023-02-21T15:08:23.777Z,43.70
2023-02-21T15:11:03.067Z,43.60
2023-02-21T15:13:36.822Z,43.60
2023-02-21T15:16:13.406Z,43.50
2023-02-21T15:18:59.837Z,43.40
2023-02-21T15:21:32.908Z,43.50
2023-02-21T15:24:13.798Z,43.50
2023-02-21T15:26:46.903Z,43.80
2023-02-21T15:29:20.026Z,43.60
2023-02-21T15:31:55.860Z,43.70
2023-02-21T15:34:33.241Z,43.60
2023-02-21T15:37:18.235Z,43.70
2023-02-21T15:39:55.323Z,43.80
2023-02-21T15:42:29.262Z,43.90
2023-02-21T15:45:03.747Z,43.90
2023-02-21T15:47:38.546Z,43.90
2023-02-21T15:50:12.766Z,44.10
2023-02-21T15:52:48.888Z,44.30
2023-02-21T15:55:29.830Z,44.30
2023-02-21T15:58:03.782Z,44.30
2023-02-21T16:00:37.756Z,44.90
2023-02-21T16:03:32.350Z,44.40
2023-02-21T16:06:16.925Z,44.30
2023-02-21T16:08:58.705Z,44.50
2023-02-21T16:11:43.071Z,44.50
2023-02-21T16:14:17.598Z,44.30
2023-02-21T16:16:53.992Z,44.10
2023-02-21T16:19:32.271Z,44.10
2023-02-21T16:22:12.590Z,44.10
2023-02-21T16:24:45.655Z,44.00
2023-02-21T16:27:19.646Z,44.10
2023-02-21T16:29:52.750Z,44.10
2023-02-21T16:32:25.805Z,44.10
2023-02-21T16:35:00.334Z,44.20
2023-02-21T16:37:33.734Z,44.10
2023-02-21T16:40:12.807Z,44.10
2023-02-21T16:42:46.089Z,44.40
2023-02-21T16:45:19.201Z,44.30
2023-02-21T16:47:56.461Z,44.30
2023-02-21T16:50:32.751Z,44.40
2023-02-21T16:53:06.120Z,44.50
2023-02-21T16:55:39.539Z,44.30
2023-02-21T16:58:17.978Z,44.40
2023-02-21T17:00:52.332Z,44.40
2023-02-21T17:03:25.750Z,44.50
2023-02-21T17:06:01.440Z,44.90
2023-02-21T17:08:34.866Z,45.00
2023-02-21T17:11:07.998Z,45.20
2023-02-21T17:13:41.114Z,45.30
2023-02-21T17:16:14.309Z,45.60
2023-02-21T17:18:47.516Z,45.80
2023-02-21T17:21:22.098Z,46.10
2023-02-21T17:23:57.462Z,46.30
2023-02-21T17:26:30.641Z,46.70
2023-02-21T17:29:03.768Z,46.90
2023-02-21T17:31:36.965Z,47.20
2023-02-21T17:34:10.174Z,47.50
2023-02-21T17:36:45.156Z,47.70
2023-02-21T17:39:18.398Z,47.80
2023-02-21T17:41:52.107Z,48.20
2023-02-21T17:44:27.573Z,48.20
2023-02-21T17:47:01.871Z,48.10
2023-02-21T17:49:34.949Z,47.90
2023-02-21T17:52:09.480Z,48.30
2023-02-21T17:54:42.726Z,48.20
2023-02-21T17:57:15.862Z,48.70
2023-02-21T17:59:49.059Z,49.00
2023-02-21T18:02:22.140Z,49.20
2023-02-21T18:04:55.305Z,49.20
2023-02-21T18:07:32.657Z,49.30
2023-02-21T18:10:06.365Z,49.40
2023-02-21T18:12:39.471Z,49.70
2023-02-21T18:15:12.691Z,49.50
2023-02-21T18:17:45.794Z,49.90
2023-02-21T18:20:19.029Z,50.00
2023-02-21T18:22:53.541Z,50.00
2023-02-21T18:25:26.906Z,50.10
2023-02-21T18:28:00.034Z,50.10
2023-02-21T18:30:33.207Z,50.10
2023-02-21T18:33:06.759Z,50.20
2023-02-21T18:35:40.017Z,50.30
2023-02-21T18:38:16.029Z,50.20
2023-02-21T18:40:49.279Z,50.20
2023-02-21T18:43:23.440Z,50.60
2023-02-21T18:45:57.521Z,50.60
2023-02-21T18:48:30.658Z,50.80
2023-02-21T18:51:03.780Z,51.60
2023-02-21T18:53:38.696Z,52.20
2023-02-21T18:56:12.860Z,51.90
2023-02-21T18:58:46.181Z,51.90
2023-02-21T19:01:20.851Z,51.90
2023-02-21T19:03:54.621Z,52.00
2023-02-21T19:06:27.766Z,52.30
2023-02-21T19:09:03.783Z,52.10
2023-02-21T19:11:36.859Z,52.10
2023-02-21T19:14:10.003Z,51.80
2023-02-21T19:16:43.401Z,51.30
2023-02-21T19:19:16.517Z,51.20
2023-02-21T19:21:49.836Z,50.90
2023-02-21T19:24:24.691Z,50.50
2023-02-21T19:26:57.791Z,50.30
2023-02-21T19:29:31.022Z,49.90
2023-02-21T19:32:04.170Z,49.90
2023-02-21T19:34:37.519Z,49.70
2023-02-21T19:37:10.892Z,49.50
2023-02-21T19:39:45.691Z,49.20
2023-02-21T19:42:18.748Z,49.20
2023-02-21T19:44:51.976Z,49.30
2023-02-21T19:47:25.085Z,49.20
2023-02-21T19:49:58.163Z,48.90
2023-02-21T19:52:31.409Z,49.00
2023-02-21T19:55:06.266Z,49.10
2023-02-21T19:57:39.352Z,48.70
2023-02-21T20:00:13.952Z,48.90
2023-02-21T20:02:47.205Z,48.60
2023-02-21T20:05:20.407Z,48.70
2023-02-21T20:07:53.497Z,48.30
2023-02-21T20:10:28.061Z,48.20
2023-02-21T20:13:02.347Z,48.10
2023-02-21T20:15:35.860Z,48.20
2023-02-21T20:18:09.116Z,48.20
2023-02-21T20:20:42.328Z,48.20
2023-02-21T20:23:17.707Z,48.20
2023-02-21T20:25:52.551Z,48.40
2023-02-21T20:28:25.643Z,48.40
2023-02-21T20:30:58.753Z,48.50
2023-02-21T20:33:31.886Z,48.60
2023-02-21T20:36:05.324Z,48.70
2023-02-21T20:38:38.684Z,48.70
2023-02-21T20:41:15.733Z,48.90
2023-02-21T20:43:49.125Z,49.00
2023-02-21T20:46:22.905Z,49.10
2023-02-21T20:48:58.587Z,49.20
2023-02-21T20:51:33.301Z,49.30
2023-02-21T20:54:06.852Z,49.30
2023-02-21T20:56:47.129Z,49.40
2023-02-21T20:59:22.485Z,49.50
2023-02-21T21:01:55.811Z,49.50
2023-02-21T21:04:29.638Z,49.50
2023-02-21T21:07:03.946Z,49.60
2023-02-21T21:09:38.755Z,50.00
2023-02-21T21:12:14.488Z,50.40
2023-02-21T21:14:49.987Z,51.60
2023-02-21T21:17:23.172Z,52.00
2023-02-21T21:19:56.312Z,52.50
2023-02-21T21:22:29.564Z,52.50
2023-02-21T21:25:02.782Z,52.70
2023-02-21T21:27:37.562Z,52.60
2023-02-21T21:30:12.389Z,52.50
2023-02-21T21:32:45.784Z,52.70
2023-02-21T21:35:19.881Z,52.70
2023-02-21T21:37:53.094Z,52.70
2023-02-21T21:40:27.118Z,52.70
2023-02-21T21:43:02.538Z,52.70
2023-02-21T21:45:44.184Z,52.80
2023-02-21T21:48:18.638Z,52.90
2023-02-21T21:50:51.859Z,52.90
2023-02-21T21:53:25.082Z,53.00
2023-02-21T21:56:00.355Z,53.10
2023-02-21T21:58:35.038Z,53.20
2023-02-21T22:01:08.212Z,53.10
2023-02-21T22:03:41.351Z,53.00
2023-02-21T22:06:14.451Z,53.10
2023-02-21T22:08:47.597Z,53.10
2023-02-21T22:11:22.569Z,53.20
2023-02-21T22:13:57.293Z,53.20
2023-02-21T22:16:35.435Z,53.30
2023-02-21T22:19:08.854Z,53.30
2023-02-21T22:21:43.148Z,53.70
2023-02-21T22:24:20.723Z,53.60
2023-02-21T22:26:54.312Z,53.50
2023-02-21T22:29:28.833Z,53.40
2023-02-21T22:32:01.989Z,53.50
2023-02-21T22:34:35.119Z,53.40
2023-02-21T22:37:10.299Z,53.40
2023-02-21T22:39:43.368Z,53.40
2023-02-21T22:42:18.041Z,53.50
2023-02-21T22:44:52.704Z,53.40
2023-02-21T22:47:25.805Z,53.10
2023-02-21T22:49:58.947Z,53.00
2023-02-21T22:52:32.569Z,52.80
2023-02-21T22:55:06.087Z,52.70
2023-02-21T22:57:39.301Z,52.60
2023-02-21T23:00:20.203Z,52.60
2023-02-21T23:02:53.401Z,52.60
2023-02-21T23:05:26.760Z,52.80
2023-02-21T23:07:59.815Z,53.00
2023-02-21T23:10:34.474Z,53.00
2023-02-21T23:13:08.535Z,53.10
2023-02-21T23:15:43.496Z,53.10
2023-02-21T23:18:20.545Z,53.20
2023-02-21T23:20:54.579Z,53.20
2023-02-21T23:23:28.802Z,53.30
2023-02-21T23:26:01.908Z,53.30
2023-02-21T23:28:35.560Z,53.30
2023-02-21T23:31:13.892Z,53.30
2023-02-21T23:33:49.846Z,53.30
2023-02-21T23:36:23.459Z,53.30
2023-02-21T23:38:58.141Z,53.30
2023-02-21T23:41:34.387Z,53.20
2023-02-21T23:44:10.825Z,53.30
2023-02-21T23:46:45.953Z,53.30
2023-02-21T23:49:19.073Z,53.20
2023-02-21T23:51:53.737Z,53.00
2023-02-21T23:54:26.867Z,52.90
2023-02-21T23:57:00.711Z,53.00
2023-02-21T23:59:35.455Z,52.90
